Time;durP1;ratioP1;P1;durP2;ratioP2;P2;SDS_P1;SDS_P2;PMS_P1;PMS_P2;Temp;Humidity;BMP_temperature;BMP_pressure;BME280_temperature;BME280_humidity;BME280_pressure;Samples;Min_cycle;Max_cycle;Signal;HPM_P1;HPM_P2
2023/08/21 00:00:36;;;;;;;12.30;9.63;;;20.70;99.90;;;;;;2064805;28;20472;-84
2023/08/21 00:01:37;;;;;;;11.20;9.57;;;20.70;99.90;;;;;;2076763;28;20233;-84
2023/08/21 00:02:37;;;;;;;10.40;9.30;;;20.70;99.90;;;;;;2085113;28;20236;-84
2023/08/21 00:03:38;;;;;;;10.60;9.53;;;20.80;99.90;;;;;;2069809;28;20312;-84
2023/08/21 00:04:39;;;;;;;11.77;9.17;;;20.80;99.90;;;;;;2064798;28;20226;-84
2023/08/21 00:05:39;;;;;;;9.73;8.70;;;20.70;99.90;;;;;;2072236;28;20368;-84
2023/08/21 00:06:40;;;;;;;11.63;9.53;;;20.70;99.90;;;;;;2056045;28;20222;-83
2023/08/21 00:07:41;;;;;;;13.23;10.30;;;20.60;99.90;;;;;;2064968;28;20222;-84
2023/08/21 00:08:42;;;;;;;13.83;9.27;;;20.60;99.90;;;;;;2067532;28;20225;-86
2023/08/21 00:09:42;;;;;;;10.40;9.27;;;20.60;99.90;;;;;;2065364;28;20313;-84
2023/08/21 00:10:43;;;;;;;12.10;9.83;;;20.60;99.90;;;;;;2062477;28;20222;-83
2023/08/21 00:11:44;;;;;;;11.03;9.17;;;20.60;99.90;;;;;;2063969;28;20253;-84
2023/08/21 00:12:44;;;;;;;13.23;9.53;;;20.60;99.90;;;;;;2056105;28;20223;-84
2023/08/21 00:13:47;;;;;;;10.77;9.67;;;20.70;99.90;;;;;;2063648;28;20675;-83
2023/08/21 00:14:48;;;;;;;11.23;9.70;;;20.70;99.90;;;;;;2080704;28;20244;-84
2023/08/21 00:15:49;;;;;;;10.83;9.83;;;20.70;99.90;;;;;;2070859;28;20490;-83
2023/08/21 00:16:50;;;;;;;10.67;9.57;;;20.70;99.90;;;;;;2059526;28;20257;-84
2023/08/21 00:17:50;;;;;;;11.03;9.13;;;20.70;99.90;;;;;;2061776;28;20249;-83
2023/08/21 00:18:51;;;;;;;10.93;9.80;;;20.70;99.90;;;;;;2060174;28;20225;-83
2023/08/21 00:19:52;;;;;;;10.80;9.80;;;20.60;99.90;;;;;;2059443;28;20222;-84
2023/08/21 00:20:52;;;;;;;11.33;9.57;;;20.70;99.90;;;;;;2053322;28;20267;-84
2023/08/21 00:21:53;;;;;;;10.47;9.30;;;20.70;99.90;;;;;;2054655;28;20223;-84
2023/08/21 00:22:54;;;;;;;11.63;9.30;;;20.50;99.90;;;;;;2067655;28;20230;-84
2023/08/21 00:23:55;;;;;;;10.50;9.50;;;20.60;99.90;;;;;;2075825;28;20281;-83
2023/08/21 00:24:56;;;;;;;12.40;9.63;;;20.60;99.90;;;;;;2088712;28;20230;-84
2023/08/21 00:25:57;;;;;;;12.07;9.50;;;20.60;99.90;;;;;;2089335;28;20454;-83
2023/08/21 00:26:57;;;;;;;10.73;9.63;;;20.60;99.90;;;;;;2072538;28;20228;-84
2023/08/21 00:27:58;;;;;;;11.90;9.53;;;20.60;99.90;;;;;;2055464;28;20460;-84
2023/08/21 00:28:59;;;;;;;11.33;8.73;;;20.60;99.90;;;;;;2056841;28;20222;-84
2023/08/21 00:30:01;;;;;;;12.07;9.60;;;20.60;99.90;;;;;;2063939;28;20228;-84
2023/08/21 00:31:03;;;;;;;11.07;9.30;;;20.50;99.90;;;;;;2062591;28;20626;-84
2023/08/21 00:32:04;;;;;;;9.77;8.77;;;20.50;99.90;;;;;;2063860;28;20507;-84
2023/08/21 00:33:04;;;;;;;12.70;9.60;;;20.60;99.90;;;;;;2063565;28;20420;-83
2023/08/21 00:34:06;;;;;;;11.90;9.00;;;20.60;99.90;;;;;;2063381;28;20194;-83
2023/08/21 00:35:07;;;;;;;11.57;9.37;;;20.60;99.90;;;;;;2055818;28;20673;-83
2023/08/21 00:36:07;;;;;;;11.27;9.37;;;20.60;99.90;;;;;;2063284;28;20881;-83
2023/08/21 00:37:08;;;;;;;10.13;9.13;;;20.60;99.90;;;;;;2071243;28;20439;-84
2023/08/21 00:38:09;;;;;;;12.33;9.17;;;20.50;99.90;;;;;;2063790;28;20198;-84
2023/08/21 00:39:10;;;;;;;9.90;8.90;;;20.50;99.90;;;;;;2063239;28;20650;-83
2023/08/21 00:40:11;;;;;;;10.23;9.23;;;20.50;99.90;;;;;;2063869;28;20394;-84
2023/08/21 00:41:12;;;;;;;11.50;8.47;;;20.50;99.90;;;;;;2060215;28;20217;-84
2023/08/21 00:42:13;;;;;;;10.53;9.07;;;20.50;99.90;;;;;;2068383;28;20490;-84
2023/08/21 00:43:13;;;;;;;10.13;8.80;;;20.50;99.90;;;;;;2074323;28;20193;-84
2023/08/21 00:44:14;;;;;;;10.67;8.87;;;20.50;99.90;;;;;;2074870;28;20209;-83
2023/08/21 00:45:15;;;;;;;10.90;8.80;;;20.50;99.90;;;;;;2071757;28;20337;-83
2023/08/21 00:46:17;;;;;;;10.10;9.07;;;20.50;99.90;;;;;;2067310;28;20233;-83
2023/08/21 00:47:19;;;;;;;11.13;9.60;;;20.40;99.90;;;;;;2067657;28;20284;-84
2023/08/21 00:48:20;;;;;;;11.17;9.97;;;20.40;99.90;;;;;;2052239;28;20903;-83
2023/08/21 00:49:21;;;;;;;10.27;9.20;;;20.40;99.90;;;;;;2055445;28;22662;-83
2023/08/21 00:50:22;;;;;;;11.43;9.47;;;20.40;99.90;;;;;;2063989;28;20472;-84
2023/08/21 00:51:23;;;;;;;11.13;9.10;;;20.40;99.90;;;;;;2067446;28;20512;-84
2023/08/21 00:52:24;;;;;;;11.90;9.13;;;20.40;99.90;;;;;;2076015;28;20318;-84
2023/08/21 00:53:25;;;;;;;10.30;9.10;;;20.50;99.90;;;;;;2063589;28;20463;-83
2023/08/21 00:54:26;;;;;;;13.67;8.93;;;20.40;99.90;;;;;;2063124;28;20226;-83
2023/08/21 00:55:27;;;;;;;10.90;9.80;;;20.40;99.90;;;;;;2069824;28;20237;-84
2023/08/21 00:56:28;;;;;;;10.77;9.50;;;20.40;99.90;;;;;;2067242;28;20232;-83
2023/08/21 00:57:29;;;;;;;10.77;9.27;;;20.40;99.90;;;;;;2062942;28;20304;-83
2023/08/21 00:58:30;;;;;;;9.67;8.77;;;20.40;99.90;;;;;;2052265;28;20242;-84
2023/08/21 00:59:31;;;;;;;10.37;9.07;;;20.40;99.90;;;;;;2069981;28;20468;-84
2023/08/21 01:00:35;;;;;;;9.73;8.70;;;20.30;99.90;;;;;;2068459;28;20249;-84
2023/08/21 01:01:37;;;;;;;11.33;9.57;;;20.20;99.90;;;;;;2070146;28;20463;-84
2023/08/21 01:02:37;;;;;;;10.00;9.00;;;20.20;99.90;;;;;;2066244;28;20554;-83
2023/08/21 01:03:38;;;;;;;12.33;9.27;;;20.20;99.90;;;;;;2075570;28;20947;-83
2023/08/21 01:04:39;;;;;;;12.87;10.20;;;20.10;99.90;;;;;;2071033;28;20241;-83
2023/08/21 01:05:40;;;;;;;10.40;9.30;;;20.10;99.90;;;;;;2054529;28;20226;-84
2023/08/21 01:06:40;;;;;;;10.23;9.23;;;20.10;99.90;;;;;;2054122;28;20362;-84
2023/08/21 01:08:03;;;;;;;11.67;9.33;;;20.10;99.90;;;;;;2068013;28;20283;-83
2023/08/21 01:09:46;;;;;;;11.50;10.30;;;20.10;99.90;;;;;;2070841;28;20635;-83
2023/08/21 01:10:52;;;;;;;9.57;8.67;;;20.10;99.90;;;;;;2069097;28;20466;-83
2023/08/21 01:12:23;;;;;;;10.97;9.73;;;20.10;99.90;;;;;;2055347;28;21012;-83
2023/08/21 01:14:03;;;;;;;12.53;9.63;;;20.10;99.90;;;;;;2067297;28;20462;-83
2023/08/21 01:15:07;;;;;;;11.17;9.77;;;20.10;99.90;;;;;;2059360;28;20485;-83
2023/08/21 01:16:09;;;;;;;9.90;8.90;;;20.10;99.90;;;;;;2055953;28;20568;-83
2023/08/21 01:17:12;;;;;;;9.37;8.33;;;20.10;99.90;;;;;;2059535;28;20815;-83
2023/08/21 01:18:14;;;;;;;12.97;9.07;;;20.10;99.90;;;;;;2051072;28;20453;-83
2023/08/21 01:19:31;;;;;;;12.47;9.83;;;20.00;99.90;;;;;;2066506;28;20424;-83
2023/08/21 01:20:32;;;;;;;10.80;9.17;;;20.00;99.90;;;;;;2076693;28;20519;-83
2023/08/21 01:21:33;;;;;;;11.63;9.60;;;20.00;99.90;;;;;;2062588;28;20534;-82
2023/08/21 01:22:45;;;;;;;12.23;10.07;;;20.00;99.90;;;;;;2054452;28;20223;-83
2023/08/21 01:23:46;;;;;;;11.33;10.13;;;20.00;99.90;;;;;;2052681;28;20227;-83
2023/08/21 01:24:47;;;;;;;11.63;10.13;;;20.00;99.90;;;;;;2062434;28;20464;-83
2023/08/21 01:25:47;;;;;;;10.00;9.00;;;19.90;99.90;;;;;;2076959;28;20266;-83
2023/08/21 01:26:48;;;;;;;11.23;10.03;;;19.90;99.90;;;;;;2060499;28;20241;-83
2023/08/21 01:27:50;;;;;;;11.20;9.73;;;20.00;99.90;;;;;;2058335;28;20226;-83
2023/08/21 01:28:51;;;;;;;10.70;9.60;;;20.00;99.90;;;;;;2069881;28;20225;-83
2023/08/21 01:29:52;;;;;;;10.73;9.63;;;20.00;99.90;;;;;;2052483;28;20464;-83
2023/08/21 01:31:19;;;;;;;10.83;9.80;;;20.00;99.90;;;;;;2061554;28;20714;-83
2023/08/21 01:32:50;;;;;;;9.90;8.90;;;20.00;99.90;;;;;;2053430;28;20219;-83
2023/08/21 01:33:56;;;;;;;12.63;9.63;;;20.00;99.90;;;;;;2066635;28;20513;-83
2023/08/21 01:34:58;;;;;;;10.63;9.40;;;19.90;99.90;;;;;;2062196;28;20831;-82
2023/08/21 01:36:03;;;;;;;11.13;9.33;;;19.90;99.90;;;;;;2055553;28;20502;-83
2023/08/21 01:37:06;;;;;;;10.20;8.90;;;19.90;99.90;;;;;;2069998;28;20458;-83
2023/08/21 01:38:07;;;;;;;11.40;10.10;;;19.90;99.90;;;;;;2070334;28;20557;-83
2023/08/21 01:39:08;;;;;;;11.07;9.60;;;19.90;99.90;;;;;;2062823;28;20896;-83
2023/08/21 01:40:10;;;;;;;11.40;9.13;;;19.90;99.90;;;;;;2062847;28;20420;-84
2023/08/21 01:41:10;;;;;;;13.00;9.67;;;19.90;99.90;;;;;;2062718;28;20442;-83
2023/08/21 01:42:11;;;;;;;10.10;9.13;;;19.90;99.90;;;;;;2054606;28;20433;-83
2023/08/21 01:43:12;;;;;;;12.27;9.83;;;19.90;99.90;;;;;;2063474;28;20670;-83
2023/08/21 01:44:12;;;;;;;11.03;9.90;;;19.90;99.90;;;;;;2071593;28;20705;-83
2023/08/21 01:45:13;;;;;;;12.73;9.90;;;19.90;99.90;;;;;;2062706;28;20198;-83
2023/08/21 01:46:14;;;;;;;11.57;9.90;;;19.90;99.90;;;;;;2046844;28;20587;-83
2023/08/21 01:47:15;;;;;;;12.07;10.73;;;19.90;99.90;;;;;;2062369;28;20182;-83
2023/08/21 01:48:15;;;;;;;12.80;10.97;;;19.80;99.90;;;;;;2067764;28;20169;-83
2023/08/21 01:49:18;;;;;;;13.60;10.00;;;19.80;99.90;;;;;;2071128;28;20198;-83
2023/08/21 01:50:19;;;;;;;11.57;10.37;;;19.80;99.90;;;;;;2056606;28;20200;-83
2023/08/21 01:51:20;;;;;;;13.13;10.50;;;19.70;99.90;;;;;;2062196;28;20508;-83
2023/08/21 01:52:21;;;;;;;15.33;10.33;;;19.70;99.90;;;;;;2069413;28;20186;-83
2023/08/21 01:53:22;;;;;;;10.50;9.17;;;19.80;99.90;;;;;;2063050;28;20474;-83
2023/08/21 01:54:22;;;;;;;10.90;9.20;;;19.70;99.90;;;;;;2063513;28;20225;-83
2023/08/21 01:55:23;;;;;;;12.27;9.43;;;19.70;99.90;;;;;;2070506;28;20227;-83
2023/08/21 01:56:24;;;;;;;10.60;9.53;;;19.70;99.90;;;;;;2070778;28;20230;-83
2023/08/21 01:57:25;;;;;;;14.17;10.03;;;19.80;99.90;;;;;;2062857;28;20249;-83
2023/08/21 01:58:25;;;;;;;13.93;9.40;;;19.80;99.90;;;;;;2055041;28;20737;-83
2023/08/21 01:59:26;;;;;;;12.40;10.03;;;19.80;99.90;;;;;;2054340;28;20745;-83
2023/08/21 02:00:27;;;;;;;12.70;8.80;;;19.80;99.90;;;;;;2052613;28;20310;-83
2023/08/21 02:01:28;;;;;;;11.23;9.10;;;19.90;99.90;;;;;;2060351;28;20224;-83
2023/08/21 02:02:28;;;;;;;9.93;8.93;;;19.90;99.90;;;;;;2059377;28;21023;-83
2023/08/21 02:03:30;;;;;;;9.97;8.70;;;19.90;99.90;;;;;;2053920;28;20274;-83
2023/08/21 02:04:31;;;;;;;10.77;8.73;;;19.90;99.90;;;;;;2061710;28;20261;-83
2023/08/21 02:05:39;;;;;;;9.67;8.67;;;19.90;99.90;;;;;;2069075;28;20983;-83
2023/08/21 02:06:40;;;;;;;10.63;8.57;;;19.90;99.90;;;;;;2056092;28;20226;-83
2023/08/21 02:07:41;;;;;;;9.93;8.93;;;19.80;99.90;;;;;;2063504;28;20478;-84
2023/08/21 02:08:42;;;;;;;9.97;8.53;;;19.80;99.90;;;;;;2063071;28;20525;-84
2023/08/21 02:09:42;;;;;;;13.13;9.27;;;19.80;99.90;;;;;;2056424;28;20222;-83
2023/08/21 02:10:53;;;;;;;10.80;8.93;;;19.80;99.90;;;;;;2068181;28;20237;-83
2023/08/21 02:11:53;;;;;;;12.47;8.53;;;19.80;99.90;;;;;;2064818;28;20305;-83
2023/08/21 02:12:54;;;;;;;9.73;8.73;;;19.80;99.90;;;;;;2060816;28;20515;-83
2023/08/21 02:13:55;;;;;;;10.30;9.13;;;19.80;99.90;;;;;;2052518;28;20224;-83
2023/08/21 02:14:55;;;;;;;9.47;8.13;;;19.80;99.90;;;;;;2058273;28;20223;-83
2023/08/21 02:15:56;;;;;;;11.73;9.30;;;19.80;99.90;;;;;;2064232;28;20253;-82
2023/08/21 02:16:57;;;;;;;10.17;8.50;;;19.80;99.90;;;;;;2065247;28;20276;-83
2023/08/21 02:17:57;;;;;;;10.27;9.20;;;19.80;99.90;;;;;;2073366;28;20214;-82
2023/08/21 02:18:58;;;;;;;8.57;7.67;;;19.90;99.90;;;;;;2072427;28;20282;-83
2023/08/21 02:19:59;;;;;;;13.90;8.60;;;19.80;99.90;;;;;;2071044;28;20232;-83
2023/08/21 02:21:03;;;;;;;9.77;8.80;;;19.90;99.90;;;;;;2069302;28;20264;-83
2023/08/21 02:22:03;;;;;;;9.63;8.20;;;19.80;99.90;;;;;;2055532;28;20274;-83
2023/08/21 02:23:04;;;;;;;9.50;8.50;;;19.70;99.90;;;;;;2063812;28;20424;-82
2023/08/21 02:24:05;;;;;;;10.43;8.97;;;19.70;99.90;;;;;;2072445;28;20229;-83
2023/08/21 02:25:06;;;;;;;9.37;8.40;;;19.70;99.90;;;;;;2056614;28;20190;-83
2023/08/21 02:26:07;;;;;;;11.60;8.43;;;19.70;99.90;;;;;;2063257;28;20193;-83
2023/08/21 02:27:08;;;;;;;9.30;8.40;;;19.70;99.90;;;;;;2063165;28;20455;-83
2023/08/21 02:28:08;;;;;;;9.40;8.23;;;19.70;99.90;;;;;;2063958;28;20647;-83
2023/08/21 02:29:09;;;;;;;9.90;8.13;;;19.70;99.90;;;;;;2072335;28;20689;-82
2023/08/21 02:30:10;;;;;;;9.83;8.43;;;19.70;99.90;;;;;;2061664;28;20192;-83
2023/08/21 02:31:11;;;;;;;9.83;8.07;;;19.70;99.90;;;;;;2053136;28;20184;-83
2023/08/21 02:32:12;;;;;;;9.77;8.77;;;19.70;99.90;;;;;;2064784;28;20416;-84
2023/08/21 02:33:13;;;;;;;9.63;8.63;;;19.70;99.90;;;;;;2062998;28;20175;-83
2023/08/21 02:34:14;;;;;;;11.93;8.83;;;19.70;99.90;;;;;;2070364;28;20428;-83
2023/08/21 02:35:14;;;;;;;9.40;7.73;;;19.70;99.90;;;;;;2071524;28;20261;-83
2023/08/21 02:36:16;;;;;;;9.17;8.23;;;19.70;99.90;;;;;;2068882;28;20212;-83
2023/08/21 02:37:17;;;;;;;10.37;9.13;;;19.70;99.90;;;;;;2066240;28;20194;-84
2023/08/21 02:38:17;;;;;;;13.03;8.90;;;19.60;99.90;;;;;;2068013;28;20428;-83
2023/08/21 02:39:18;;;;;;;11.13;8.63;;;19.60;99.90;;;;;;2083589;28;20189;-84
2023/08/21 02:40:19;;;;;;;9.63;8.30;;;19.60;99.90;;;;;;2072544;28;20680;-84
2023/08/21 02:41:19;;;;;;;10.30;7.87;;;19.60;99.90;;;;;;2068136;28;20193;-83
2023/08/21 02:42:20;;;;;;;9.40;8.50;;;19.60;99.90;;;;;;2065732;28;20221;-83
2023/08/21 02:43:21;;;;;;;10.87;7.67;;;19.60;99.90;;;;;;2067937;28;20260;-84
2023/08/21 02:44:22;;;;;;;8.90;7.93;;;19.60;99.90;;;;;;2079706;28;20247;-84
2023/08/21 02:45:22;;;;;;;10.37;9.33;;;19.50;99.90;;;;;;2063965;28;20234;-83
2023/08/21 02:46:23;;;;;;;9.40;8.43;;;19.50;99.90;;;;;;2063530;28;20226;-84
2023/08/21 02:47:24;;;;;;;9.57;8.57;;;19.50;99.90;;;;;;2071378;28;20312;-84
2023/08/21 02:48:25;;;;;;;11.47;9.07;;;19.50;99.90;;;;;;2072074;28;20308;-83
2023/08/21 02:49:25;;;;;;;10.10;9.10;;;19.50;99.90;;;;;;2068408;28;20226;-83
2023/08/21 02:50:26;;;;;;;10.73;8.50;;;19.50;99.90;;;;;;2068554;28;20226;-84
2023/08/21 02:51:27;;;;;;;13.30;8.90;;;19.50;99.90;;;;;;2071381;28;20225;-83
2023/08/21 02:52:28;;;;;;;10.47;9.37;;;19.50;99.90;;;;;;2063997;28;20309;-83
2023/08/21 02:53:28;;;;;;;10.23;9.13;;;19.40;99.90;;;;;;2071935;28;20312;-83
2023/08/21 02:54:30;;;;;;;11.23;9.37;;;19.50;99.90;;;;;;2071022;28;20724;-83
2023/08/21 02:55:31;;;;;;;13.47;9.57;;;19.50;99.90;;;;;;2063720;28;20471;-83
2023/08/21 02:56:31;;;;;;;13.27;8.97;;;19.50;99.90;;;;;;2063115;28;20245;-83
2023/08/21 02:57:32;;;;;;;14.57;9.70;;;19.50;99.90;;;;;;2054972;28;20223;-83
2023/08/21 02:58:33;;;;;;;11.83;9.50;;;19.50;99.90;;;;;;2047946;28;20247;-83
2023/08/21 02:59:34;;;;;;;11.43;9.70;;;19.50;99.90;;;;;;2046713;28;20998;-83
2023/08/21 03:00:35;;;;;;;11.27;9.10;;;19.50;99.90;;;;;;2063648;28;20229;-83
2023/08/21 03:01:36;;;;;;;11.23;10.13;;;19.50;99.90;;;;;;2068119;28;20214;-83
2023/08/21 03:02:36;;;;;;;12.50;9.03;;;19.50;99.90;;;;;;2063732;28;20894;-83
2023/08/21 03:03:37;;;;;;;10.60;9.50;;;19.50;99.90;;;;;;2076651;28;20698;-83
2023/08/21 03:04:38;;;;;;;10.00;8.13;;;19.50;99.90;;;;;;2059645;28;20226;-83
2023/08/21 03:05:39;;;;;;;9.67;8.67;;;19.40;99.90;;;;;;2063250;28;20245;-83
2023/08/21 03:06:39;;;;;;;10.10;8.43;;;19.40;99.90;;;;;;2067210;28;20312;-84
2023/08/21 03:07:40;;;;;;;12.03;8.33;;;19.40;99.90;;;;;;2067868;28;20217;-83
2023/08/21 03:08:43;;;;;;;11.03;9.43;;;19.40;99.90;;;;;;2071796;28;20271;-83
2023/08/21 03:09:47;;;;;;;10.60;8.50;;;19.40;99.90;;;;;;2063134;28;20353;-83
2023/08/21 03:10:47;;;;;;;9.77;8.83;;;19.30;99.90;;;;;;2071931;28;20470;-84
2023/08/21 03:11:48;;;;;;;11.43;9.63;;;19.40;99.90;;;;;;2068460;28;20514;-84
2023/08/21 03:12:49;;;;;;;10.70;9.23;;;19.40;99.90;;;;;;2072666;28;20229;-83
2023/08/21 03:13:49;;;;;;;11.40;9.37;;;19.30;99.90;;;;;;2068831;28;20220;-84
2023/08/21 03:14:51;;;;;;;11.03;9.97;;;19.30;99.90;;;;;;2067866;28;20281;-83
2023/08/21 03:15:52;;;;;;;13.47;9.97;;;19.30;99.90;;;;;;2076296;28;20233;-83
2023/08/21 03:16:53;;;;;;;10.87;9.73;;;19.30;99.90;;;;;;2072356;28;20502;-83
2023/08/21 03:17:53;;;;;;;10.93;9.00;;;19.40;99.90;;;;;;2072667;28;20234;-84
2023/08/21 03:19:00;;;;;;;11.00;9.50;;;19.40;99.90;;;;;;2081655;28;20232;-83
2023/08/21 03:20:01;;;;;;;10.87;9.10;;;19.40;99.90;;;;;;2064999;28;20222;-83
2023/08/21 03:21:01;;;;;;;10.80;9.70;;;19.40;99.90;;;;;;2058678;28;20461;-83
2023/08/21 03:22:02;;;;;;;10.37;9.37;;;19.40;99.90;;;;;;2058954;28;20183;-82
2023/08/21 03:23:03;;;;;;;13.83;8.87;;;19.40;99.90;;;;;;2066343;28;20213;-83
2023/08/21 03:24:06;;;;;;;9.93;8.93;;;19.40;99.90;;;;;;2067365;28;20215;-84
2023/08/21 03:25:07;;;;;;;9.13;8.23;;;19.40;99.90;;;;;;2059276;28;20210;-83
2023/08/21 03:26:08;;;;;;;11.20;8.80;;;19.40;99.90;;;;;;2063546;28;20432;-84
2023/08/21 03:27:08;;;;;;;12.00;8.73;;;19.40;99.90;;;;;;2055154;28;20444;-83
2023/08/21 03:28:09;;;;;;;9.00;8.20;;;19.40;99.90;;;;;;2054443;28;20194;-83
2023/08/21 03:29:10;;;;;;;9.70;8.73;;;19.40;99.90;;;;;;2061907;28;20190;-83
2023/08/21 03:30:14;;;;;;;9.93;8.33;;;19.30;99.90;;;;;;2064578;28;20185;-84
2023/08/21 03:31:15;;;;;;;9.23;7.97;;;19.30;99.90;;;;;;2063446;28;20432;-84
2023/08/21 03:32:17;;;;;;;8.80;7.73;;;19.30;99.90;;;;;;2055834;28;20576;-83
2023/08/21 03:33:18;;;;;;;12.80;9.47;;;19.30;99.90;;;;;;2062767;28;20272;-83
2023/08/21 03:34:18;;;;;;;11.43;9.90;;;19.30;99.90;;;;;;2055646;28;20425;-84
2023/08/21 03:35:19;;;;;;;12.03;9.23;;;19.30;99.90;;;;;;2054810;28;20205;-83
2023/08/21 03:36:30;;;;;;;10.07;8.83;;;19.30;99.90;;;;;;2063597;28;20190;-83
2023/08/21 03:37:31;;;;;;;10.47;9.10;;;19.30;99.90;;;;;;2064084;28;21059;-83
2023/08/21 03:38:31;;;;;;;9.53;8.63;;;19.30;99.90;;;;;;2064207;28;20475;-83
2023/08/21 03:39:33;;;;;;;12.27;10.13;;;19.30;99.90;;;;;;2063461;28;20294;-83
2023/08/21 03:40:33;;;;;;;12.17;9.53;;;19.30;99.90;;;;;;2079379;28;20266;-83
2023/08/21 03:41:34;;;;;;;11.97;9.73;;;19.30;99.90;;;;;;2063717;28;20655;-84
2023/08/21 03:42:35;;;;;;;11.07;9.10;;;19.30;99.90;;;;;;2063074;28;20226;-83
2023/08/21 03:43:36;;;;;;;10.70;9.60;;;19.30;99.90;;;;;;2070887;28;20300;-83
2023/08/21 03:44:38;;;;;;;11.37;9.83;;;19.20;99.90;;;;;;2060590;28;20802;-83
2023/08/21 03:45:38;;;;;;;11.37;10.07;;;19.30;99.90;;;;;;2067410;28;20233;-83
2023/08/21 03:46:39;;;;;;;14.97;11.20;;;19.20;99.90;;;;;;2074211;28;20459;-83
2023/08/21 03:47:40;;;;;;;12.27;9.20;;;19.30;99.90;;;;;;2080623;28;20229;-83
2023/08/21 03:48:41;;;;;;;12.67;9.93;;;19.30;99.90;;;;;;2076960;28;20890;-83
2023/08/21 03:49:41;;;;;;;12.73;10.00;;;19.30;99.90;;;;;;2064392;28;20234;-83
2023/08/21 03:50:42;;;;;;;10.73;9.60;;;19.30;99.90;;;;;;2073171;28;20267;-83
2023/08/21 03:51:43;;;;;;;13.27;9.90;;;19.30;99.90;;;;;;2055573;28;20231;-83
2023/08/21 03:52:43;;;;;;;12.13;9.43;;;19.40;99.90;;;;;;2055917;28;20587;-83
2023/08/21 03:53:44;;;;;;;11.60;9.50;;;19.40;99.90;;;;;;2071243;28;20349;-83
2023/08/21 03:54:45;;;;;;;10.77;9.33;;;19.40;99.90;;;;;;2063192;28;20217;-83
2023/08/21 03:55:46;;;;;;;13.47;10.40;;;19.40;99.90;;;;;;2047600;28;20793;-84
2023/08/21 03:56:46;;;;;;;10.43;9.43;;;19.40;99.90;;;;;;2055839;28;20234;-84
2023/08/21 03:57:47;;;;;;;11.73;9.17;;;19.40;99.90;;;;;;2061853;28;20351;-84
2023/08/21 03:58:48;;;;;;;10.10;8.97;;;19.40;99.90;;;;;;2070006;28;20600;-84
2023/08/21 03:59:50;;;;;;;12.37;10.10;;;19.30;99.90;;;;;;2062463;28;20232;-84
2023/08/21 04:00:51;;;;;;;13.93;10.10;;;19.40;99.90;;;;;;2061629;28;20222;-84
2023/08/21 04:01:52;;;;;;;10.07;8.80;;;19.40;99.90;;;;;;2064267;28;20475;-84
2023/08/21 04:02:52;;;;;;;10.30;9.23;;;19.40;99.90;;;;;;2055989;28;20461;-83
2023/08/21 04:03:53;;;;;;;11.03;9.47;;;19.40;99.90;;;;;;2062886;28;20230;-83
2023/08/21 04:04:54;;;;;;;10.37;8.70;;;19.40;99.90;;;;;;2062152;28;20237;-84
2023/08/21 04:05:56;;;;;;;11.40;8.80;;;19.40;99.90;;;;;;2060993;28;20218;-84
2023/08/21 04:06:57;;;;;;;12.13;8.97;;;19.50;99.90;;;;;;2078613;28;20225;-84
2023/08/21 04:07:57;;;;;;;10.63;9.37;;;19.40;99.90;;;;;;2069973;28;20562;-84
2023/08/21 04:08:58;;;;;;;11.37;10.10;;;19.40;99.90;;;;;;2068730;28;20225;-84
2023/08/21 04:09:59;;;;;;;10.77;9.67;;;19.40;99.90;;;;;;2079749;28;20220;-84
2023/08/21 04:11:00;;;;;;;8.63;7.77;;;19.40;99.90;;;;;;2070885;28;20279;-84
2023/08/21 04:12:00;;;;;;;11.10;9.00;;;19.40;99.90;;;;;;2071036;28;20304;-84
2023/08/21 04:13:01;;;;;;;10.13;8.20;;;19.40;99.90;;;;;;2070081;28;21059;-84
2023/08/21 04:14:02;;;;;;;14.23;9.10;;;19.40;99.90;;;;;;2066931;28;20196;-84
2023/08/21 04:15:03;;;;;;;10.90;9.20;;;19.40;99.90;;;;;;2074950;28;20829;-84
2023/08/21 04:16:04;;;;;;;8.80;7.83;;;19.30;99.90;;;;;;2071104;28;20568;-84
2023/08/21 04:17:05;;;;;;;9.07;8.17;;;19.20;99.90;;;;;;2070032;28;20459;-83
2023/08/21 04:18:06;;;;;;;9.77;8.77;;;19.20;99.90;;;;;;2051766;28;20911;-84
2023/08/21 04:19:06;;;;;;;9.33;8.27;;;19.20;99.90;;;;;;2060389;28;20198;-83
2023/08/21 04:20:08;;;;;;;10.70;8.37;;;19.30;99.90;;;;;;2071204;28;20251;-83
2023/08/21 04:21:09;;;;;;;9.80;8.80;;;19.20;99.90;;;;;;2070800;28;20197;-84
2023/08/21 04:22:10;;;;;;;9.87;8.87;;;19.20;99.90;;;;;;2059905;28;20886;-83
2023/08/21 04:23:11;;;;;;;10.10;8.87;;;19.20;99.90;;;;;;2060137;28;20436;-84
2023/08/21 04:24:11;;;;;;;11.00;8.80;;;19.20;99.90;;;;;;2075606;28;20296;-84
2023/08/21 04:25:12;;;;;;;10.83;8.87;;;19.20;99.90;;;;;;2066399;28;20202;-84
2023/08/21 04:26:13;;;;;;;10.73;9.13;;;19.20;99.90;;;;;;2070410;28;20189;-84
2023/08/21 04:27:14;;;;;;;10.83;9.70;;;19.20;99.90;;;;;;2055136;28;20195;-84
2023/08/21 04:28:14;;;;;;;13.43;9.90;;;19.20;99.90;;;;;;2053654;28;20699;-84
2023/08/21 04:29:15;;;;;;;12.10;9.70;;;19.20;99.90;;;;;;2060716;28;20286;-84
2023/08/21 04:30:16;;;;;;;9.80;8.80;;;19.20;99.90;;;;;;2061198;28;20227;-85
2023/08/21 04:31:17;;;;;;;9.97;8.57;;;19.20;99.90;;;;;;2060457;28;20219;-84
2023/08/21 04:32:17;;;;;;;10.67;8.73;;;19.20;99.90;;;;;;2071037;28;20174;-84
2023/08/21 04:33:18;;;;;;;11.80;9.67;;;19.20;99.90;;;;;;2068397;28;20642;-84
2023/08/21 04:34:19;;;;;;;16.70;8.53;;;19.20;99.90;;;;;;2066825;28;20197;-83
2023/08/21 04:35:20;;;;;;;13.20;9.53;;;19.20;99.90;;;;;;2072453;28;20221;-83
2023/08/21 04:36:20;;;;;;;11.07;9.03;;;19.20;99.90;;;;;;2068909;28;20248;-84
2023/08/21 04:37:21;;;;;;;11.00;8.90;;;19.20;99.90;;;;;;2062000;28;20362;-84
2023/08/21 04:38:22;;;;;;;9.17;8.13;;;19.20;99.90;;;;;;2054744;28;20352;-84
2023/08/21 04:39:22;;;;;;;8.67;7.77;;;19.10;99.90;;;;;;2062272;28;20291;-84
2023/08/21 04:40:24;;;;;;;10.60;7.87;;;19.10;99.90;;;;;;2076002;28;20869;-84
2023/08/21 04:41:25;;;;;;;10.57;8.00;;;19.10;99.90;;;;;;2067274;28;20348;-84
2023/08/21 04:42:26;;;;;;;9.77;8.77;;;19.10;99.90;;;;;;2071402;28;20550;-85
2023/08/21 04:43:27;;;;;;;11.10;8.17;;;19.10;99.90;;;;;;2062770;28;20250;-85
2023/08/21 04:44:27;;;;;;;11.67;9.23;;;19.10;99.90;;;;;;2059340;28;20237;-84
2023/08/21 04:45:28;;;;;;;10.13;8.57;;;19.10;99.90;;;;;;2064258;28;20253;-84
2023/08/21 04:46:29;;;;;;;9.90;8.83;;;19.20;99.90;;;;;;2062750;28;20226;-84
2023/08/21 04:47:29;;;;;;;10.93;8.80;;;19.20;99.90;;;;;;2064000;28;20276;-84
2023/08/21 04:48:30;;;;;;;9.13;8.23;;;19.20;99.90;;;;;;2067858;28;20230;-84
2023/08/21 04:49:31;;;;;;;12.23;8.23;;;19.20;99.90;;;;;;2075072;28;20226;-84
2023/08/21 04:50:32;;;;;;;10.27;8.57;;;19.20;99.90;;;;;;2071599;28;20240;-84
2023/08/21 04:51:32;;;;;;;10.70;9.10;;;19.20;99.90;;;;;;2058751;28;20341;-83
2023/08/21 04:52:33;;;;;;;12.77;10.27;;;19.20;99.90;;;;;;2059380;28;20305;-84
2023/08/21 04:53:34;;;;;;;12.07;10.10;;;19.20;99.90;;;;;;2064005;28;20230;-84
2023/08/21 04:54:34;;;;;;;10.37;9.27;;;19.30;99.90;;;;;;2066547;28;20229;-84
2023/08/21 04:55:36;;;;;;;13.77;8.63;;;19.30;99.90;;;;;;2071440;28;20231;-84
2023/08/21 04:56:37;;;;;;;9.20;8.30;;;19.30;99.90;;;;;;2062306;28;20233;-84
2023/08/21 04:57:38;;;;;;;9.70;7.93;;;19.30;99.90;;;;;;2070696;28;20482;-84
2023/08/21 04:58:38;;;;;;;10.73;8.27;;;19.30;99.90;;;;;;2069669;28;20595;-84
2023/08/21 04:59:39;;;;;;;8.80;7.90;;;19.30;99.90;;;;;;2062822;28;20287;-84
2023/08/21 05:00:40;;;;;;;10.67;8.30;;;19.40;99.90;;;;;;2055066;28;20227;-84
2023/08/21 05:01:40;;;;;;;9.50;8.60;;;19.40;99.90;;;;;;2054680;28;20253;-83
2023/08/21 05:02:41;;;;;;;10.47;9.37;;;19.40;99.90;;;;;;2059433;28;20247;-84
2023/08/21 05:03:42;;;;;;;10.37;8.33;;;19.40;99.90;;;;;;2063939;28;20214;-84
2023/08/21 05:04:43;;;;;;;10.87;8.47;;;19.40;99.90;;;;;;2054232;28;20249;-84
2023/08/21 05:05:55;;;;;;;9.23;7.90;;;19.50;99.90;;;;;;2063219;28;20232;-85
2023/08/21 05:06:56;;;;;;;9.97;8.23;;;19.50;99.90;;;;;;2059137;28;20337;-86
2023/08/21 05:07:57;;;;;;;11.17;8.70;;;19.50;99.90;;;;;;2072745;28;20473;-84
2023/08/21 05:08:57;;;;;;;10.33;9.27;;;19.50;99.90;;;;;;2071458;28;20228;-83
2023/08/21 05:10:02;;;;;;;11.60;8.70;;;19.50;99.90;;;;;;2060293;28;20285;-84
2023/08/21 05:11:03;;;;;;;10.33;9.17;;;19.50;99.90;;;;;;2061654;28;20277;-83
2023/08/21 05:12:05;;;;;;;10.93;9.13;;;19.50;99.90;;;;;;2062575;28;20470;-84
2023/08/21 05:13:06;;;;;;;10.50;9.07;;;19.60;99.90;;;;;;2063088;28;20893;-83
2023/08/21 05:14:07;;;;;;;11.40;9.37;;;19.60;99.90;;;;;;2054164;28;20436;-83
2023/08/21 05:15:08;;;;;;;9.80;8.43;;;19.60;99.90;;;;;;2054450;28;20249;-84
2023/08/21 05:16:09;;;;;;;13.10;9.00;;;19.60;99.90;;;;;;2055372;28;20563;-84
2023/08/21 05:17:10;;;;;;;10.57;8.93;;;19.60;99.90;;;;;;2061208;28;20424;-84
2023/08/21 05:18:10;;;;;;;9.47;8.57;;;19.60;99.90;;;;;;2063123;28;20204;-83